createdAt,value
2023-01-21T00:01:08.757Z,35.20
2023-01-21T00:03:37.420Z,35.20
2023-01-21T00:06:05.830Z,35.20
2023-01-21T00:08:35.260Z,35.20
2023-01-21T00:11:06.930Z,35.30
2023-01-21T00:13:35.165Z,35.30
2023-01-21T00:16:03.429Z,35.20
2023-01-21T00:18:32.109Z,35.30
2023-01-21T00:21:00.212Z,35.30
2023-01-21T00:23:28.307Z,35.20
2023-01-21T00:26:00.123Z,35.20
2023-01-21T00:28:30.057Z,35.30
2023-01-21T00:30:59.406Z,35.20
2023-01-21T00:33:27.691Z,35.20
2023-01-21T00:36:03.116Z,35.20
2023-01-21T00:38:31.171Z,35.20
2023-01-21T00:41:04.246Z,35.20
2023-01-21T00:43:32.407Z,35.30
2023-01-21T00:46:00.492Z,35.30
2023-01-21T00:48:28.809Z,35.20
2023-01-21T00:51:00.468Z,35.20
2023-01-21T00:53:28.833Z,35.20
2023-01-21T00:56:00.138Z,35.20
2023-01-21T00:58:29.809Z,35.20
2023-01-21T01:01:03.948Z,35.20
2023-01-21T01:03:31.992Z,35.20
2023-01-21T01:06:03.899Z,35.20
2023-01-21T01:08:32.110Z,35.20
2023-01-21T01:11:00.275Z,35.20
2023-01-21T01:13:29.709Z,35.30
2023-01-21T01:15:58.781Z,35.30
2023-01-21T01:18:27.304Z,35.20
2023-01-21T01:20:55.457Z,35.30
2023-01-21T01:23:23.506Z,35.30
2023-01-21T01:25:58.165Z,35.30
2023-01-21T01:28:26.313Z,35.20
2023-01-21T01:30:55.846Z,35.20
2023-01-21T01:33:24.355Z,35.30
2023-01-21T01:35:52.477Z,35.30
2023-01-21T01:38:21.654Z,35.20
2023-01-21T01:40:50.482Z,35.20
2023-01-21T01:43:19.740Z,35.30
2023-01-21T01:45:48.836Z,35.30
2023-01-21T01:48:19.739Z,35.30
2023-01-21T01:50:47.839Z,35.30
2023-01-21T01:53:15.904Z,35.30
2023-01-21T01:55:44.022Z,35.30
2023-01-21T01:58:14.361Z,35.30
2023-01-21T02:00:42.502Z,35.20
2023-01-21T02:03:28.195Z,35.20
2023-01-21T02:05:57.599Z,35.30
2023-01-21T02:08:25.697Z,35.30
2023-01-21T02:10:56.265Z,35.30
2023-01-21T02:13:24.608Z,35.20
2023-01-21T02:15:59.396Z,35.20
2023-01-21T02:18:31.151Z,35.30
2023-01-21T02:21:27.916Z,35.20
2023-01-21T02:24:06.886Z,35.20
2023-01-21T02:26:54.157Z,35.20
2023-01-21T02:29:46.567Z,35.20
2023-01-21T02:32:40.527Z,35.30
2023-01-21T02:35:11.788Z,35.20
2023-01-21T02:37:41.739Z,35.10
2023-01-21T02:40:12.728Z,35.10
2023-01-21T02:42:43.542Z,35.30
2023-01-21T02:45:21.297Z,35.20
2023-01-21T02:47:53.233Z,35.20
2023-01-21T02:50:24.252Z,35.10
2023-01-21T02:52:58.913Z,35.10
2023-01-21T02:55:28.992Z,35.10
2023-01-21T02:57:58.203Z,35.10
2023-01-21T03:00:27.565Z,35.10
2023-01-21T03:03:23.491Z,35.10
2023-01-21T03:06:16.231Z,35.10
2023-01-21T03:08:47.476Z,35.10
2023-01-21T03:11:16.943Z,35.10
2023-01-21T03:14:05.846Z,35.20
2023-01-21T03:16:52.490Z,35.20
2023-01-21T03:19:20.702Z,35.20
2023-01-21T03:21:50.150Z,35.10
2023-01-21T03:24:18.176Z,35.10
2023-01-21T03:26:48.377Z,35.10
2023-01-21T03:29:17.295Z,35.20
2023-01-21T03:31:46.949Z,35.10
2023-01-21T03:34:15.159Z,35.10
2023-01-21T03:36:44.308Z,35.20
2023-01-21T03:39:15.919Z,35.20
2023-01-21T03:41:43.963Z,35.20
2023-01-21T03:44:11.986Z,35.20
2023-01-21T03:46:41.848Z,35.10
2023-01-21T03:49:14.222Z,35.20
2023-01-21T03:51:43.619Z,35.20
2023-01-21T03:54:13.027Z,35.20
2023-01-21T03:56:41.088Z,35.10
2023-01-21T03:59:09.102Z,35.20
2023-01-21T04:01:37.315Z,35.20
2023-01-21T04:04:05.670Z,35.10
2023-01-21T04:06:34.119Z,35.20
2023-01-21T04:09:02.164Z,35.10
2023-01-21T04:11:31.587Z,35.10
2023-01-21T04:13:59.604Z,35.20
2023-01-21T04:16:27.644Z,35.20
2023-01-21T04:18:55.722Z,35.10
2023-01-21T04:21:23.848Z,35.10
2023-01-21T04:23:51.861Z,35.20
2023-01-21T04:26:19.880Z,35.20
2023-01-21T04:28:49.225Z,35.10
2023-01-21T04:31:17.283Z,35.10
2023-01-21T04:33:45.339Z,35.10
2023-01-21T04:36:14.681Z,35.20
2023-01-21T04:38:42.841Z,35.10
2023-01-21T04:41:10.819Z,35.10
2023-01-21T04:43:38.814Z,35.10
2023-01-21T04:46:08.382Z,35.10
2023-01-21T04:48:36.380Z,35.10
2023-01-21T04:51:06.391Z,35.10
2023-01-21T04:53:34.533Z,35.10
2023-01-21T04:56:02.544Z,35.10
2023-01-21T04:58:30.681Z,35.10
2023-01-21T05:00:58.759Z,35.10
2023-01-21T05:03:28.216Z,35.10
2023-01-21T05:05:56.227Z,35.10
2023-01-21T05:08:24.237Z,35.10
2023-01-21T05:10:52.251Z,35.10
2023-01-21T05:13:20.245Z,35.10
2023-01-21T05:15:48.309Z,35.10
2023-01-21T05:18:16.367Z,35.10
2023-01-21T05:20:45.790Z,35.10
2023-01-21T05:23:13.805Z,35.00
2023-01-21T05:25:41.853Z,35.10
2023-01-21T05:28:09.836Z,35.10
2023-01-21T05:30:40.385Z,35.10
2023-01-21T05:33:09.048Z,35.10
2023-01-21T05:35:37.088Z,35.10
2023-01-21T05:38:06.474Z,35.20
2023-01-21T05:40:34.509Z,35.20
2023-01-21T05:43:02.507Z,35.10
2023-01-21T05:45:30.565Z,35.20
2023-01-21T05:47:58.597Z,35.10
2023-01-21T05:50:26.641Z,35.10
2023-01-21T05:52:55.061Z,35.10
2023-01-21T05:55:24.452Z,35.10
2023-01-21T05:57:52.450Z,35.10
2023-01-21T06:00:21.166Z,35.10
2023-01-21T06:02:49.206Z,35.10
2023-01-21T06:05:17.312Z,35.10
2023-01-21T06:07:45.342Z,35.10
2023-01-21T06:10:13.343Z,35.10
2023-01-21T06:12:42.783Z,35.20
2023-01-21T06:15:11.579Z,35.20
2023-01-21T06:17:40.111Z,35.10
2023-01-21T06:20:09.592Z,35.10
2023-01-21T06:22:37.705Z,35.10
2023-01-21T06:25:06.260Z,35.00
2023-01-21T06:27:34.275Z,35.10
2023-01-21T06:30:03.892Z,35.10
2023-01-21T06:32:31.993Z,35.10
2023-01-21T06:35:00.035Z,35.00
2023-01-21T06:37:28.053Z,35.10
2023-01-21T06:39:56.068Z,35.00
2023-01-21T06:42:24.092Z,35.00
2023-01-21T06:44:52.088Z,35.70
2023-01-21T06:47:21.489Z,35.10
2023-01-21T06:49:49.499Z,35.10
2023-01-21T06:52:17.483Z,35.10
2023-01-21T06:54:45.483Z,35.10
2023-01-21T06:57:13.927Z,35.10
2023-01-21T06:59:41.983Z,35.10
2023-01-21T07:02:11.073Z,35.10
2023-01-21T07:04:40.477Z,35.10
2023-01-21T07:07:08.523Z,35.10
2023-01-21T07:09:36.584Z,35.10
2023-01-21T07:12:04.719Z,35.10
2023-01-21T07:14:32.727Z,35.10
2023-01-21T07:17:00.731Z,35.10
2023-01-21T07:19:28.832Z,35.10
2023-01-21T07:21:58.349Z,35.10
2023-01-21T07:24:26.340Z,35.10
2023-01-21T07:26:54.344Z,35.10
2023-01-21T07:29:23.456Z,35.10
2023-01-21T07:31:51.518Z,35.10
2023-01-21T07:34:19.580Z,35.10
2023-01-21T07:36:47.612Z,35.10
2023-01-21T07:39:16.978Z,35.10
2023-01-21T07:41:45.008Z,35.10
2023-01-21T07:44:13.111Z,35.10
2023-01-21T07:46:41.163Z,35.10
2023-01-21T07:49:09.804Z,35.00
2023-01-21T07:51:37.977Z,35.10
2023-01-21T07:54:06.062Z,35.00
2023-01-21T07:56:35.471Z,35.10
2023-01-21T07:59:03.527Z,35.10
2023-01-21T08:01:32.382Z,35.00
2023-01-21T08:04:00.419Z,35.10
2023-01-21T08:06:28.535Z,35.10
2023-01-21T08:08:56.582Z,35.00
2023-01-21T08:11:24.576Z,35.10
2023-01-21T08:13:53.946Z,35.60
2023-01-21T08:16:22.040Z,35.00
2023-01-21T08:18:50.133Z,35.00
2023-01-21T08:21:18.369Z,35.00
2023-01-21T08:23:46.336Z,35.10
2023-01-21T08:26:14.327Z,35.10
2023-01-21T08:28:43.092Z,35.10
2023-01-21T08:31:13.857Z,35.10
2023-01-21T08:33:42.040Z,35.10
2023-01-21T08:36:10.602Z,35.70
2023-01-21T08:38:38.580Z,35.10
2023-01-21T08:41:06.624Z,35.10
2023-01-21T08:43:34.675Z,35.20
2023-01-21T08:46:02.792Z,35.10
2023-01-21T08:48:32.205Z,35.20
2023-01-21T08:51:00.743Z,35.10
2023-01-21T08:53:28.807Z,35.20
2023-01-21T08:55:59.720Z,35.10
2023-01-21T08:58:27.732Z,35.10
2023-01-21T09:00:55.887Z,35.20
2023-01-21T09:03:23.926Z,35.10
2023-01-21T09:05:53.272Z,35.10
2023-01-21T09:08:21.372Z,35.10
2023-01-21T09:11:04.274Z,35.10
2023-01-21T09:13:33.263Z,35.10
2023-01-21T09:16:01.347Z,35.20
2023-01-21T09:18:29.418Z,35.10
2023-01-21T09:21:02.583Z,35.10
2023-01-21T09:23:34.114Z,35.10
2023-01-21T09:26:04.223Z,35.10
2023-01-21T09:28:32.747Z,35.20
2023-01-21T09:31:01.876Z,35.10
2023-01-21T09:33:30.204Z,35.10
2023-01-21T09:35:59.329Z,35.80
2023-01-21T09:38:28.856Z,35.20
2023-01-21T09:41:05.214Z,35.10
2023-01-21T09:43:34.925Z,35.20
2023-01-21T09:46:04.255Z,35.10
2023-01-21T09:48:34.172Z,35.10
2023-01-21T09:51:04.734Z,35.10
2023-01-21T09:53:37.014Z,35.10
2023-01-21T09:56:06.385Z,35.10
2023-01-21T09:58:36.686Z,35.10
2023-01-21T10:01:07.191Z,35.00
2023-01-21T10:03:38.344Z,35.70
2023-01-21T10:06:15.334Z,35.10
2023-01-21T10:09:06.387Z,35.10
2023-01-21T10:11:39.920Z,35.10
2023-01-21T10:14:21.040Z,35.10
2023-01-21T10:16:52.149Z,35.10
2023-01-21T10:19:22.087Z,35.10
2023-01-21T10:21:51.378Z,35.00
2023-01-21T10:24:22.129Z,35.10
2023-01-21T10:26:50.552Z,35.10
2023-01-21T10:29:19.333Z,35.10
2023-01-21T10:31:51.024Z,35.10
2023-01-21T10:34:19.422Z,35.10
2023-01-21T10:36:53.144Z,35.00
2023-01-21T10:39:28.701Z,35.00
2023-01-21T10:42:12.897Z,35.10
2023-01-21T10:44:44.772Z,35.00
2023-01-21T10:47:15.667Z,35.10
2023-01-21T10:49:49.769Z,35.10
2023-01-21T10:52:20.580Z,35.10
2023-01-21T10:54:52.958Z,35.00
2023-01-21T10:57:38.875Z,35.00
2023-01-21T11:00:09.669Z,35.00
2023-01-21T11:02:37.726Z,35.00
2023-01-21T11:05:06.948Z,35.10
2023-01-21T11:07:36.511Z,35.00
2023-01-21T11:10:06.964Z,35.00
2023-01-21T11:12:35.138Z,35.10
2023-01-21T11:15:04.042Z,35.00
2023-01-21T11:17:33.672Z,35.00
2023-01-21T11:20:02.773Z,34.90
2023-01-21T11:22:31.472Z,35.00
2023-01-21T11:24:59.679Z,35.00
2023-01-21T11:27:35.840Z,35.00
2023-01-21T11:30:15.634Z,34.90
2023-01-21T11:32:48.988Z,35.00
2023-01-21T11:35:21.793Z,34.90
2023-01-21T11:37:49.834Z,34.90
2023-01-21T11:40:21.756Z,34.90
2023-01-21T11:42:52.149Z,34.80
2023-01-21T11:45:30.205Z,34.80
2023-01-21T11:47:58.328Z,34.70
2023-01-21T11:50:28.071Z,34.80
2023-01-21T11:53:13.086Z,34.80
2023-01-21T11:55:41.720Z,34.80
2023-01-21T11:58:19.092Z,34.70
2023-01-21T12:00:47.780Z,34.70
2023-01-21T12:03:16.976Z,34.80
2023-01-21T12:05:45.040Z,34.80
2023-01-21T12:08:17.358Z,34.80
2023-01-21T12:10:45.472Z,34.80
2023-01-21T12:13:22.115Z,34.80
2023-01-21T12:15:57.265Z,34.80
2023-01-21T12:18:29.967Z,34.80
2023-01-21T12:21:00.004Z,34.80
2023-01-21T12:23:44.253Z,34.80
2023-01-21T12:26:37.910Z,34.80
2023-01-21T12:29:34.941Z,34.90
2023-01-21T12:32:04.223Z,34.80
2023-01-21T12:34:33.354Z,34.70
2023-01-21T12:37:03.385Z,34.70
2023-01-21T12:39:33.602Z,34.80
2023-01-21T12:42:08.828Z,34.80
2023-01-21T12:44:40.730Z,34.70
2023-01-21T12:47:15.320Z,34.70
2023-01-21T12:49:56.584Z,34.80
2023-01-21T12:52:26.724Z,34.80
2023-01-21T12:54:58.769Z,34.80
2023-01-21T12:57:28.928Z,34.70
2023-01-21T12:59:59.579Z,34.80
2023-01-21T13:02:30.147Z,34.80
2023-01-21T13:04:58.997Z,34.80
2023-01-21T13:07:31.097Z,34.80
2023-01-21T13:10:03.096Z,34.80
2023-01-21T13:12:32.072Z,34.80
2023-01-21T13:15:02.871Z,34.80
2023-01-21T13:17:32.862Z,34.80
2023-01-21T13:20:00.851Z,34.70
2023-01-21T13:22:36.646Z,34.70
2023-01-21T13:25:11.295Z,34.70
2023-01-21T13:27:44.280Z,34.70
2023-01-21T13:30:20.552Z,34.70
2023-01-21T13:32:50.480Z,34.70
2023-01-21T13:35:24.203Z,34.70
2023-01-21T13:37:56.297Z,34.80
2023-01-21T13:40:32.504Z,34.70
2023-01-21T13:43:06.191Z,34.70
2023-01-21T13:45:40.534Z,34.70
2023-01-21T13:48:26.506Z,35.30
2023-01-21T13:51:05.504Z,34.70
2023-01-21T13:53:47.120Z,34.60
2023-01-21T13:56:27.135Z,34.70
2023-01-21T13:58:57.592Z,34.70
2023-01-21T14:01:28.274Z,34.70
2023-01-21T14:03:57.742Z,34.70
2023-01-21T14:06:27.427Z,34.60
2023-01-21T14:08:56.846Z,34.60
2023-01-21T14:11:25.829Z,34.70
2023-01-21T14:14:18.334Z,34.70
2023-01-21T14:17:04.281Z,35.30
2023-01-21T14:19:54.753Z,34.70
2023-01-21T14:22:32.578Z,34.70
2023-01-21T14:25:10.501Z,34.70
2023-01-21T14:27:42.919Z,34.70
2023-01-21T14:30:14.052Z,34.80
2023-01-21T14:32:45.347Z,34.80
2023-01-21T14:35:18.379Z,34.70
2023-01-21T14:37:48.381Z,34.80
2023-01-21T14:40:18.793Z,34.70
2023-01-21T14:42:47.815Z,34.70
2023-01-21T14:45:16.772Z,34.70
2023-01-21T14:47:48.105Z,34.70
2023-01-21T14:50:44.890Z,34.70
2023-01-21T14:53:13.319Z,34.70
2023-01-21T14:55:41.453Z,34.80
2023-01-21T14:58:19.778Z,34.70
2023-01-21T15:00:47.818Z,34.70
2023-01-21T15:03:19.281Z,34.70
2023-01-21T15:05:50.345Z,34.70
2023-01-21T15:08:21.118Z,34.70
2023-01-21T15:10:52.321Z,34.70
2023-01-21T15:13:41.933Z,34.70
2023-01-21T15:16:35.123Z,34.80
2023-01-21T15:19:19.968Z,34.70
2023-01-21T15:22:17.390Z,34.70
2023-01-21T15:25:27.059Z,34.70
2023-01-21T15:28:29.629Z,34.70
2023-01-21T15:31:00.797Z,34.70
2023-01-21T15:33:29.179Z,34.70
2023-01-21T15:35:59.048Z,34.80
2023-01-21T15:38:27.387Z,34.80
2023-01-21T15:40:55.863Z,34.80
2023-01-21T15:43:27.103Z,34.70
2023-01-21T15:45:59.509Z,34.80
2023-01-21T15:48:42.377Z,34.80
2023-01-21T15:51:20.480Z,34.80
2023-01-21T15:53:56.401Z,34.80
2023-01-21T15:56:35.926Z,34.80
2023-01-21T15:59:13.931Z,34.80
2023-01-21T16:01:43.002Z,34.80
2023-01-21T16:04:22.030Z,34.70
2023-01-21T16:07:01.917Z,34.80
2023-01-21T16:09:33.597Z,34.80
2023-01-21T16:12:07.930Z,34.90
2023-01-21T16:14:52.897Z,34.80
2023-01-21T16:17:22.013Z,34.90
2023-01-21T16:19:51.397Z,35.00
2023-01-21T16:22:22.089Z,34.90
2023-01-21T16:24:51.592Z,35.00
2023-01-21T16:27:20.643Z,34.90
2023-01-21T16:29:48.700Z,35.00
2023-01-21T16:32:18.407Z,34.90
2023-01-21T16:34:46.436Z,35.00
2023-01-21T16:37:15.917Z,34.90
2023-01-21T16:39:45.320Z,34.90
2023-01-21T16:42:24.496Z,35.00
2023-01-21T16:44:52.500Z,35.00
2023-01-21T16:47:23.886Z,34.90
2023-01-21T16:49:52.049Z,34.90
2023-01-21T16:52:20.687Z,34.90
2023-01-21T16:54:50.182Z,34.90
2023-01-21T16:57:25.736Z,34.90
2023-01-21T16:59:55.979Z,34.90
2023-01-21T17:02:25.549Z,34.90
2023-01-21T17:04:53.828Z,34.90
2023-01-21T17:07:23.024Z,34.90
2023-01-21T17:09:57.015Z,34.90
2023-01-21T17:12:26.149Z,34.90
2023-01-21T17:14:56.915Z,35.00
2023-01-21T17:17:24.963Z,34.90
2023-01-21T17:19:52.966Z,34.90
2023-01-21T17:22:21.845Z,34.90
2023-01-21T17:24:58.689Z,34.90
2023-01-21T17:27:26.703Z,34.90
2023-01-21T17:29:54.708Z,34.90
2023-01-21T17:32:26.854Z,34.90
2023-01-21T17:35:13.501Z,34.90
2023-01-21T17:37:45.989Z,34.90
2023-01-21T17:40:29.579Z,34.90
2023-01-21T17:42:58.971Z,34.90
2023-01-21T17:45:31.549Z,34.90
2023-01-21T17:48:14.963Z,34.90
2023-01-21T17:50:45.977Z,34.90
2023-01-21T17:53:18.938Z,34.90
2023-01-21T17:55:57.577Z,34.90
2023-01-21T17:58:49.335Z,34.90
2023-01-21T18:01:17.568Z,34.90
2023-01-21T18:03:45.677Z,34.90
2023-01-21T18:06:18.534Z,34.90
2023-01-21T18:08:46.626Z,34.90
2023-01-21T18:11:17.077Z,34.90
2023-01-21T18:13:45.065Z,34.90
2023-01-21T18:16:13.161Z,34.90
2023-01-21T18:18:41.306Z,34.90
2023-01-21T18:21:15.630Z,34.90
2023-01-21T18:23:43.662Z,35.00
2023-01-21T18:26:14.356Z,35.00
2023-01-21T18:28:43.795Z,34.90
2023-01-21T18:31:11.975Z,34.90
2023-01-21T18:33:40.022Z,35.00
2023-01-21T18:36:11.722Z,34.90
2023-01-21T18:38:39.752Z,34.90
2023-01-21T18:41:08.875Z,35.00
2023-01-21T18:43:36.903Z,34.90
2023-01-21T18:46:09.736Z,34.90
2023-01-21T18:48:37.768Z,34.90
2023-01-21T18:51:06.009Z,35.00
2023-01-21T18:53:34.055Z,34.90
2023-01-21T18:56:02.063Z,34.90
2023-01-21T18:58:30.066Z,34.90
2023-01-21T19:00:58.108Z,35.00
2023-01-21T19:03:27.643Z,34.90
2023-01-21T19:05:55.645Z,35.00
2023-01-21T19:08:26.702Z,34.90
2023-01-21T19:10:55.234Z,35.00
2023-01-21T19:13:23.206Z,35.00
2023-01-21T19:15:51.180Z,34.90
2023-01-21T19:18:19.183Z,35.00
2023-01-21T19:20:48.539Z,35.00
2023-01-21T19:23:17.229Z,34.90
2023-01-21T19:25:45.471Z,34.90
2023-01-21T19:28:13.524Z,34.90
2023-01-21T19:30:45.087Z,34.90
2023-01-21T19:33:13.473Z,34.90
2023-01-21T19:35:43.993Z,34.90
2023-01-21T19:38:14.703Z,35.00
2023-01-21T19:40:42.795Z,35.00
2023-01-21T19:43:12.215Z,35.50
2023-01-21T19:45:40.278Z,34.90
2023-01-21T19:48:11.487Z,35.00
2023-01-21T19:50:39.542Z,34.80
2023-01-21T19:53:07.578Z,35.00
2023-01-21T19:55:37.025Z,35.00
2023-01-21T19:58:05.724Z,34.90
2023-01-21T20:00:34.862Z,34.80
2023-01-21T20:03:02.946Z,34.90
2023-01-21T20:05:33.644Z,34.90
2023-01-21T20:08:01.700Z,34.90
2023-01-21T20:10:30.685Z,34.90
2023-01-21T20:13:00.103Z,34.90
2023-01-21T20:15:29.666Z,34.90
2023-01-21T20:17:58.536Z,34.90
2023-01-21T20:20:27.785Z,34.80
2023-01-21T20:22:55.804Z,34.90
2023-01-21T20:25:24.785Z,34.90
2023-01-21T20:27:53.677Z,34.80
2023-01-21T20:30:24.506Z,34.90
2023-01-21T20:32:52.488Z,34.90
2023-01-21T20:35:20.854Z,34.90
2023-01-21T20:37:49.876Z,34.90
2023-01-21T20:40:20.140Z,35.00
2023-01-21T20:42:48.345Z,35.00
2023-01-21T20:45:17.341Z,34.90
2023-01-21T20:47:50.281Z,35.00
2023-01-21T20:50:21.614Z,34.90
2023-01-21T20:52:50.247Z,35.00
2023-01-21T20:55:21.320Z,34.90
2023-01-21T20:57:49.491Z,34.90
2023-01-21T21:00:18.736Z,34.90
2023-01-21T21:02:48.990Z,34.90
2023-01-21T21:05:18.014Z,34.90
2023-01-21T21:07:46.060Z,34.90
2023-01-21T21:10:17.854Z,34.80
2023-01-21T21:12:45.959Z,34.90
2023-01-21T21:15:14.045Z,34.90
2023-01-21T21:17:42.005Z,34.80
2023-01-21T21:20:23.323Z,34.80
2023-01-21T21:22:51.431Z,34.90
2023-01-21T21:25:20.850Z,34.90
2023-01-21T21:27:50.384Z,34.90
2023-01-21T21:30:19.132Z,34.90
2023-01-21T21:32:47.047Z,34.90
2023-01-21T21:35:23.731Z,34.80
2023-01-21T21:37:52.042Z,34.90
2023-01-21T21:40:20.252Z,34.90
2023-01-21T21:43:05.914Z,34.80
2023-01-21T21:45:33.893Z,34.80
2023-01-21T21:48:22.618Z,34.90
2023-01-21T21:50:57.566Z,34.90
2023-01-21T21:53:30.777Z,34.90
2023-01-21T21:56:02.629Z,34.90
2023-01-21T21:58:30.596Z,34.90
2023-01-21T22:01:04.752Z,34.80
2023-01-21T22:03:32.773Z,34.80
2023-01-21T22:06:04.026Z,34.90
2023-01-21T22:08:32.672Z,34.90
2023-01-21T22:11:00.714Z,34.90
2023-01-21T22:13:28.934Z,34.90
2023-01-21T22:15:57.109Z,34.90
2023-01-21T22:18:25.206Z,34.90
2023-01-21T22:20:55.881Z,34.80
2023-01-21T22:23:25.298Z,34.80
2023-01-21T22:25:53.795Z,34.90
2023-01-21T22:28:21.694Z,34.90
2023-01-21T22:30:49.831Z,34.90
2023-01-21T22:33:17.866Z,34.80
2023-01-21T22:35:46.205Z,34.90
2023-01-21T22:38:14.326Z,34.90
2023-01-21T22:40:44.335Z,34.90
2023-01-21T22:43:12.601Z,34.90
2023-01-21T22:45:41.531Z,34.90
2023-01-21T22:48:09.640Z,34.90
2023-01-21T22:50:40.986Z,34.90
2023-01-21T22:53:09.110Z,34.90
2023-01-21T22:55:38.227Z,34.90
2023-01-21T22:58:07.634Z,35.00
2023-01-21T23:00:37.620Z,35.00
2023-01-21T23:03:05.866Z,34.90
2023-01-21T23:05:34.109Z,34.90
2023-01-21T23:08:02.360Z,34.90
2023-01-21T23:10:30.409Z,34.90
2023-01-21T23:12:58.440Z,34.90
2023-01-21T23:15:28.162Z,34.90
2023-01-21T23:17:56.347Z,35.00
2023-01-21T23:20:28.834Z,34.90
2023-01-21T23:22:57.211Z,34.90
2023-01-21T23:25:25.370Z,34.90
2023-01-21T23:27:53.587Z,34.90
2023-01-21T23:30:21.880Z,34.90
2023-01-21T23:32:54.166Z,35.00
2023-01-21T23:35:22.284Z,34.90
2023-01-21T23:37:50.289Z,34.90
2023-01-21T23:40:18.628Z,34.90
2023-01-21T23:42:48.510Z,34.90
2023-01-21T23:45:16.787Z,34.90
2023-01-21T23:47:44.856Z,34.90
2023-01-21T23:50:14.522Z,34.90
2023-01-21T23:52:42.640Z,35.50
2023-01-21T23:55:11.019Z,35.00
2023-01-21T23:57:39.041Z,34.90
